Time;durP1;ratioP1;P1;durP2;ratioP2;P2;SDS_P1;SDS_P2;PMS_P1;PMS_P2;Temp;Humidity;BMP_temperature;BMP_pressure;BME280_temperature;BME280_humidity;BME280_pressure;Samples;Min_cycle;Max_cycle;Signal;HPM_P1;HPM_P2
2023/08/10 00:00:40;;;;;;;0.40;0.20;;;;;;;14.60;100.00;100621.53;5006315;28;20469;-50
2023/08/10 00:03:06;;;;;;;0.40;0.20;;;;;;;14.48;100.00;100623.75;5003026;28;20453;-51
2023/08/10 00:05:33;;;;;;;0.40;0.20;;;;;;;14.54;100.00;100625.34;4999740;28;20477;-51
2023/08/10 00:07:59;;;;;;;0.40;0.20;;;;;;;14.56;100.00;100630.63;5003926;28;20481;-51
2023/08/10 00:10:25;;;;;;;0.40;0.20;;;;;;;14.54;100.00;100621.78;4999772;28;21062;-50
2023/08/10 00:12:52;;;;;;;0.40;0.20;;;;;;;14.43;100.00;100627.50;5003710;28;21074;-50
2023/08/10 00:15:18;;;;;;;0.40;0.20;;;;;;;14.54;100.00;100632.50;5006481;28;20544;-50
2023/08/10 00:17:45;;;;;;;0.40;0.20;;;;;;;14.36;100.00;100626.88;5002369;28;20457;-51
2023/08/10 00:20:11;;;;;;;0.40;0.20;;;;;;;14.59;100.00;100627.81;4999525;28;20477;-51
2023/08/10 00:22:38;;;;;;;0.40;0.20;;;;;;;14.29;100.00;100635.19;5003436;28;20546;-51
2023/08/10 00:25:05;;;;;;;0.40;0.20;;;;;;;14.39;100.00;100632.13;5006009;28;20477;-50
2023/08/10 00:27:31;;;;;;;0.40;0.20;;;;;;;14.43;100.00;100632.88;5002505;28;20453;-51
2023/08/10 00:29:59;;;;;;;0.40;0.20;;;;;;;14.26;100.00;100633.53;4999327;28;20551;-50
2023/08/10 00:32:25;;;;;;;0.40;0.20;;;;;;;14.46;100.00;100635.44;5003084;28;20449;-50
2023/08/10 00:34:52;;;;;;;0.40;0.20;;;;;;;14.36;100.00;100629.53;5006382;28;20494;-50
2023/08/10 00:37:18;;;;;;;0.40;0.20;;;;;;;14.43;100.00;100632.88;5001549;28;20449;-50
2023/08/10 00:39:45;;;;;;;0.40;0.20;;;;;;;14.32;100.00;100633.28;5007405;28;20909;-50
2023/08/10 00:42:12;;;;;;;0.40;0.20;;;;;;;14.37;100.00;100630.41;5002727;28;20489;-51
2023/08/10 00:44:39;;;;;;;0.40;0.20;;;;;;;14.35;100.00;100630.47;5000727;28;20441;-50
2023/08/10 00:47:07;;;;;;;0.40;0.20;;;;;;;14.37;100.00;100633.97;5012769;28;20531;-51
2023/08/10 00:49:33;;;;;;;0.40;0.20;;;;;;;14.51;100.00;100633.44;4999143;28;20514;-50
2023/08/10 00:52:01;;;;;;;0.40;0.20;;;;;;;14.25;99.93;100629.06;5000415;28;20449;-50
2023/08/10 00:54:28;;;;;;;0.40;0.20;;;;;;;14.24;100.00;100632.69;5005702;28;20496;-51
2023/08/10 00:56:56;;;;;;;0.40;0.20;;;;;;;14.20;100.00;100642.63;5005184;28;20448;-50
2023/08/10 00:59:22;;;;;;;0.40;0.20;;;;;;;14.09;100.00;100641.28;4999118;28;20448;-51
2023/08/10 01:01:49;;;;;;;0.40;0.20;;;;;;;14.05;100.00;100639.66;4999973;28;20833;-50
2023/08/10 01:04:15;;;;;;;0.40;0.20;;;;;;;13.90;100.00;100641.97;5005930;28;20472;-50
2023/08/10 01:07:00;;;;;;;0.40;0.20;;;;;;;13.99;100.00;100650.59;5005171;28;20456;-51
2023/08/10 01:10:06;;;;;;;0.40;0.20;;;;;;;14.14;100.00;100655.38;5003755;28;20449;-51
2023/08/10 01:12:44;;;;;;;0.40;0.20;;;;;;;14.23;100.00;100655.88;5000008;28;20535;-51
2023/08/10 01:15:19;;;;;;;0.40;0.20;;;;;;;14.27;100.00;100658.47;4999034;28;20444;-50
2023/08/10 01:17:53;;;;;;;0.40;0.20;;;;;;;14.24;99.95;100657.63;5001887;28;20467;-51
2023/08/10 01:20:21;;;;;;;0.40;0.20;;;;;;;14.06;99.83;100657.44;5005934;28;20543;-51
2023/08/10 01:23:00;;;;;;;0.40;0.20;;;;;;;13.98;100.00;100657.75;5004017;28;20452;-51
2023/08/10 01:25:27;;;;;;;0.40;0.20;;;;;;;13.94;100.00;100659.63;5005378;28;20544;-51
2023/08/10 01:27:54;;;;;;;0.40;0.20;;;;;;;14.06;100.00;100658.31;5005612;28;20826;-50
2023/08/10 01:30:21;;;;;;;0.40;0.20;;;;;;;14.02;100.00;100654.03;5000201;28;20527;-50
2023/08/10 01:32:50;;;;;;;0.40;0.20;;;;;;;13.77;100.00;100658.50;4998223;28;20460;-48
2023/08/10 01:35:17;;;;;;;0.40;0.20;;;;;;;13.72;100.00;100661.34;5004080;28;20541;-48
2023/08/10 01:37:43;;;;;;;0.40;0.20;;;;;;;13.75;100.00;100663.91;5002629;28;20449;-49
2023/08/10 01:40:13;;;;;;;0.40;0.20;;;;;;;13.98;100.00;100654.16;5008056;28;20544;-48
2023/08/10 01:42:43;;;;;;;0.40;0.20;;;;;;;14.14;100.00;100658.03;5009008;28;20470;-48
2023/08/10 01:45:10;;;;;;;0.40;0.20;;;;;;;14.04;100.00;100665.53;5005106;28;20523;-48
2023/08/10 01:47:55;;;;;;;0.40;0.20;;;;;;;13.86;100.00;100660.84;5012954;28;20973;-48
2023/08/10 01:50:24;;;;;;;0.40;0.20;;;;;;;13.92;100.00;100657.94;5007567;28;20460;-49
2023/08/10 01:52:55;;;;;;;0.40;0.20;;;;;;;13.93;100.00;100665.03;5002118;28;20515;-49
2023/08/10 01:55:21;;;;;;;0.40;0.20;;;;;;;14.16;100.00;100662.41;5001687;28;20445;-48
2023/08/10 01:57:49;;;;;;;0.40;0.20;;;;;;;14.06;100.00;100666.34;5008903;28;20877;-48
2023/08/10 02:00:16;;;;;;;0.40;0.20;;;;;;;14.06;100.00;100669.00;4995907;28;20527;-48
2023/08/10 02:02:42;;;;;;;0.40;0.20;;;;;;;14.10;100.00;100667.97;5008916;28;20453;-48
2023/08/10 02:05:12;;;;;;;0.40;0.20;;;;;;;14.01;100.00;100664.78;5008812;28;20455;-48
2023/08/10 02:07:41;;;;;;;0.40;0.20;;;;;;;13.80;100.00;100669.06;5008375;28;21013;-48
2023/08/10 02:10:12;;;;;;;0.40;0.20;;;;;;;13.62;100.00;100673.28;5000011;28;20509;-48
2023/08/10 02:12:39;;;;;;;0.40;0.20;;;;;;;13.79;100.00;100673.56;5007507;28;20485;-48
2023/08/10 02:15:07;;;;;;;0.40;0.20;;;;;;;13.85;100.00;100670.69;5008511;28;20492;-48
2023/08/10 02:17:36;;;;;;;0.40;0.20;;;;;;;14.06;100.00;100674.34;5003683;28;20483;-49
2023/08/10 02:20:09;;;;;;;0.40;0.20;;;;;;;14.10;100.00;100673.31;5001719;28;20524;-48
2023/08/10 02:22:35;;;;;;;0.40;0.20;;;;;;;14.12;100.00;100670.59;4996245;28;20537;-48
2023/08/10 02:25:02;;;;;;;0.40;0.20;;;;;;;14.20;100.00;100674.72;5004909;28;20456;-48
2023/08/10 02:27:28;;;;;;;0.40;0.20;;;;;;;14.27;100.00;100671.84;5005262;28;20526;-48
2023/08/10 02:29:55;;;;;;;0.40;0.20;;;;;;;14.33;100.00;100669.78;5001414;28;20985;-49
2023/08/10 02:32:21;;;;;;;0.40;0.20;;;;;;;14.42;100.00;100666.75;5004914;28;20451;-48
2023/08/10 02:34:48;;;;;;;0.40;0.20;;;;;;;14.37;100.00;100662.50;5007843;28;20501;-49
2023/08/10 02:37:14;;;;;;;0.40;0.20;;;;;;;14.59;100.00;100657.25;5005117;28;20945;-48
2023/08/10 02:39:40;;;;;;;0.40;0.20;;;;;;;14.46;100.00;100664.88;5008254;28;20470;-48
2023/08/10 02:42:07;;;;;;;0.40;0.20;;;;;;;14.49;100.00;100662.06;5005164;28;20954;-48
2023/08/10 02:44:33;;;;;;;0.40;0.20;;;;;;;14.60;100.00;100656.31;5001467;28;20467;-48
2023/08/10 02:47:00;;;;;;;0.40;0.20;;;;;;;14.55;100.00;100660.97;5014656;28;20472;-48
2023/08/10 02:49:26;;;;;;;0.40;0.20;;;;;;;14.50;100.00;100664.69;4984004;28;20453;-49
2023/08/10 02:51:53;;;;;;;0.40;0.20;;;;;;;14.32;100.00;100662.69;5006022;28;20476;-48
2023/08/10 02:54:19;;;;;;;0.40;0.20;;;;;;;14.32;100.00;100670.72;5000834;28;21012;-48
2023/08/10 02:56:45;;;;;;;0.40;0.20;;;;;;;14.38;100.00;100666.91;5003680;28;20455;-48
2023/08/10 02:59:12;;;;;;;0.40;0.20;;;;;;;14.62;100.00;100665.16;5007783;28;20464;-48
2023/08/10 03:01:38;;;;;;;0.40;0.20;;;;;;;14.66;100.00;100664.06;5005587;28;20468;-49
2023/08/10 03:04:05;;;;;;;0.40;0.20;;;;;;;14.69;100.00;100669.34;5000679;28;20445;-49
2023/08/10 03:06:32;;;;;;;0.40;0.20;;;;;;;14.57;100.00;100665.34;5003895;28;20824;-48
2023/08/10 03:08:59;;;;;;;0.40;0.20;;;;;;;14.66;100.00;100666.75;5007679;28;20891;-48
2023/08/10 03:11:25;;;;;;;0.40;0.20;;;;;;;14.66;100.00;100669.44;5006075;28;20505;-48
2023/08/10 03:13:53;;;;;;;0.40;0.20;;;;;;;14.64;100.00;100669.50;5000827;28;20495;-48
2023/08/10 03:16:19;;;;;;;0.40;0.20;;;;;;;14.61;100.00;100669.63;4990818;28;20450;-48
2023/08/10 03:18:46;;;;;;;0.40;0.20;;;;;;;14.42;100.00;100666.75;5005951;28;20497;-49
2023/08/10 03:21:12;;;;;;;0.40;0.20;;;;;;;14.40;100.00;100663.28;5006260;28;20473;-48
2023/08/10 03:23:39;;;;;;;0.40;0.20;;;;;;;14.38;100.00;100664.25;5000879;28;20449;-49
2023/08/10 03:26:05;;;;;;;0.40;0.20;;;;;;;14.16;100.00;100669.56;5002030;28;20492;-48
2023/08/10 03:28:31;;;;;;;0.40;0.20;;;;;;;14.26;100.00;100667.41;5007290;28;20796;-48
2023/08/10 03:30:58;;;;;;;0.40;0.20;;;;;;;14.20;100.00;100669.38;5005742;28;20861;-48
2023/08/10 03:33:24;;;;;;;0.40;0.20;;;;;;;14.20;100.00;100660.47;5000324;28;20457;-48
2023/08/10 03:35:51;;;;;;;0.40;0.20;;;;;;;14.22;100.00;100658.63;5001988;28;20450;-48
2023/08/10 03:38:17;;;;;;;0.40;0.20;;;;;;;14.28;100.00;100661.06;5009465;28;20453;-48
2023/08/10 03:40:44;;;;;;;0.40;0.20;;;;;;;14.13;100.00;100665.19;5001881;28;20535;-49
2023/08/10 03:43:10;;;;;;;0.40;0.20;;;;;;;14.07;100.00;100668.06;5006668;28;20965;-49
2023/08/10 03:45:37;;;;;;;0.40;0.20;;;;;;;14.12;100.00;100676.81;5006468;28;20441;-48
2023/08/10 03:48:03;;;;;;;0.40;0.20;;;;;;;14.16;100.00;100666.88;5007086;28;20935;-49
2023/08/10 03:50:30;;;;;;;0.40;0.20;;;;;;;14.34;100.00;100670.66;5006538;28;20472;-49
2023/08/10 03:52:57;;;;;;;0.40;0.20;;;;;;;14.45;100.00;100671.16;5000216;28;20452;-48
2023/08/10 03:55:23;;;;;;;0.40;0.20;;;;;;;14.47;100.00;100669.28;5000255;28;20493;-48
2023/08/10 03:57:50;;;;;;;0.40;0.20;;;;;;;14.54;100.00;100677.97;5006289;28;20458;-48
2023/08/10 04:00:16;;;;;;;0.40;0.20;;;;;;;14.42;100.00;100671.25;5006166;28;20479;-48
2023/08/10 04:02:44;;;;;;;0.40;0.20;;;;;;;14.38;100.00;100682.97;4999803;28;20453;-48
2023/08/10 04:05:10;;;;;;;0.40;0.20;;;;;;;14.51;100.00;100670.91;5000405;28;20452;-48
2023/08/10 04:07:37;;;;;;;0.40;0.20;;;;;;;14.58;100.00;100677.78;5006416;28;20460;-48
2023/08/10 04:10:08;;;;;;;0.40;0.20;;;;;;;14.63;100.00;100682.94;4997050;28;20483;-48
2023/08/10 04:12:38;;;;;;;0.40;0.20;;;;;;;14.79;100.00;100687.63;5005581;28;20457;-48
2023/08/10 04:15:08;;;;;;;0.40;0.20;;;;;;;14.76;100.00;100697.59;5006375;28;20516;-48
2023/08/10 04:17:36;;;;;;;0.40;0.20;;;;;;;14.75;100.00;100699.38;5002361;28;20449;-49
2023/08/10 04:20:08;;;;;;;0.40;0.20;;;;;;;14.77;100.00;100702.88;4999272;28;20480;-48
2023/08/10 04:22:36;;;;;;;0.40;0.20;;;;;;;14.69;100.00;100702.31;5001612;28;20450;-49
2023/08/10 04:25:03;;;;;;;0.40;0.20;;;;;;;14.55;100.00;100704.66;5006227;28;20540;-48
2023/08/10 04:27:30;;;;;;;0.40;0.20;;;;;;;14.55;100.00;100695.75;5003361;28;20534;-48
2023/08/10 04:29:57;;;;;;;0.40;0.20;;;;;;;14.58;100.00;100704.53;4999275;28;21009;-48
2023/08/10 04:32:23;;;;;;;0.40;0.20;;;;;;;14.49;100.00;100703.06;5002314;28;20452;-48
2023/08/10 04:34:51;;;;;;;0.40;0.20;;;;;;;14.45;100.00;100712.16;5006233;28;20526;-49
2023/08/10 04:37:18;;;;;;;0.40;0.20;;;;;;;14.51;100.00;100709.22;5003204;28;20449;-48
2023/08/10 04:39:45;;;;;;;0.40;0.20;;;;;;;14.52;100.00;100710.97;5005507;28;20480;-49
2023/08/10 04:42:11;;;;;;;0.40;0.20;;;;;;;14.45;100.00;100711.28;5003758;28;20531;-48
2023/08/10 04:44:37;;;;;;;0.40;0.20;;;;;;;14.42;100.00;100714.03;4999810;28;20445;-49
2023/08/10 04:47:04;;;;;;;0.40;0.20;;;;;;;14.45;100.00;100714.81;5012286;28;20962;-48
2023/08/10 04:49:31;;;;;;;0.40;0.20;;;;;;;14.41;100.00;100714.97;4998872;28;20473;-48
2023/08/10 04:51:57;;;;;;;0.40;0.20;;;;;;;14.46;100.00;100711.22;5000675;28;20449;-49
2023/08/10 04:54:24;;;;;;;0.40;0.20;;;;;;;14.35;100.00;100713.38;5005554;28;20496;-48
2023/08/10 04:56:50;;;;;;;0.40;0.20;;;;;;;14.45;100.00;100709.47;5004728;28;20844;-49
2023/08/10 04:59:17;;;;;;;0.40;0.20;;;;;;;14.45;100.00;100712.16;4998871;28;20476;-49
2023/08/10 05:01:43;;;;;;;0.40;0.20;;;;;;;14.52;100.00;100708.28;5000253;28;20449;-48
2023/08/10 05:04:10;;;;;;;0.40;0.20;;;;;;;14.51;100.00;100714.56;5005903;28;20519;-48
2023/08/10 05:06:36;;;;;;;0.40;0.20;;;;;;;14.62;100.00;100706.16;5004853;28;20460;-48
2023/08/10 05:09:04;;;;;;;0.40;0.20;;;;;;;14.80;100.00;100710.81;4999523;28;20545;-49
2023/08/10 05:11:31;;;;;;;0.40;0.20;;;;;;;14.90;100.00;100716.66;5009537;28;20471;-49
2023/08/10 05:13:57;;;;;;;2.43;2.33;;;;;;;14.86;100.00;100719.50;5003095;28;20543;-48
2023/08/10 05:16:24;;;;;;;0.40;0.20;;;;;;;14.99;100.00;100718.09;5003327;28;20583;-48
2023/08/10 05:18:50;;;;;;;0.40;0.20;;;;;;;15.25;100.00;100717.91;5009807;28;20460;-49
2023/08/10 05:21:17;;;;;;;0.40;0.20;;;;;;;15.40;100.00;100722.63;5009450;28;21139;-49
2023/08/10 05:23:44;;;;;;;0.40;0.20;;;;;;;15.46;100.00;100721.50;5009452;28;20544;-48
2023/08/10 05:26:11;;;;;;;0.40;0.20;;;;;;;15.65;100.00;100729.69;5009492;28;20784;-49
2023/08/10 05:28:38;;;;;;;0.40;0.20;;;;;;;15.70;100.00;100728.53;5009149;28;20540;-49
2023/08/10 05:31:04;;;;;;;0.40;0.20;;;;;;;15.96;100.00;100730.09;5009333;28;21047;-48
2023/08/10 05:33:31;;;;;;;0.40;0.20;;;;;;;15.80;100.00;100736.19;5003622;28;20934;-49
2023/08/10 05:35:57;;;;;;;0.40;0.20;;;;;;;15.77;100.00;100744.38;5002389;28;20489;-49
2023/08/10 05:38:25;;;;;;;0.40;0.20;;;;;;;15.87;100.00;100743.03;5011734;28;20818;-49
2023/08/10 05:40:52;;;;;;;2.23;2.23;;;;;;;15.80;100.00;100745.13;5002310;28;20469;-49
2023/08/10 05:43:18;;;;;;;0.40;0.20;;;;;;;15.83;100.00;100741.44;5007682;28;20453;-49
2023/08/10 05:45:45;;;;;;;0.40;0.20;;;;;;;15.77;100.00;100749.75;5009791;28;20444;-48
2023/08/10 05:48:12;;;;;;;0.40;0.20;;;;;;;15.99;100.00;100750.53;5008398;28;20951;-48
2023/08/10 05:50:39;;;;;;;0.40;0.20;;;;;;;15.92;100.00;100752.63;5009155;28;20464;-49
2023/08/10 05:53:06;;;;;;;0.40;0.20;;;;;;;15.79;100.00;100762.13;5003423;28;20457;-49
2023/08/10 05:55:33;;;;;;;0.40;0.20;;;;;;;15.84;100.00;100759.25;5002400;28;20521;-48
2023/08/10 05:58:01;;;;;;;0.40;0.20;;;;;;;15.89;100.00;100752.75;5007952;28;20528;-49
2023/08/10 06:00:27;;;;;;;0.40;0.20;;;;;;;15.97;100.00;100749.75;5007633;28;20555;-49
2023/08/10 06:02:54;;;;;;;0.40;0.20;;;;;;;15.78;100.00;100748.81;4984613;28;20453;-49
2023/08/10 06:05:21;;;;;;;0.40;0.20;;;;;;;15.95;100.00;100748.94;5008779;28;20448;-49
2023/08/10 06:07:47;;;;;;;0.40;0.20;;;;;;;16.05;100.00;100744.94;5004270;28;20539;-48
2023/08/10 06:10:16;;;;;;;0.40;0.20;;;;;;;16.43;100.00;100753.06;5002048;28;20509;-49
2023/08/10 06:12:43;;;;;;;0.40;0.20;;;;;;;17.10;97.58;100750.81;5006552;28;20456;-51
2023/08/10 06:15:10;;;;;;;0.40;0.20;;;;;;;17.37;95.46;100747.72;5008397;28;20563;-51
2023/08/10 06:17:37;;;;;;;0.40;0.20;;;;;;;17.86;93.16;100745.31;5004614;28;20588;-51
2023/08/10 06:20:16;;;;;;;0.40;0.20;;;;;;;18.02;91.02;100746.25;5000896;28;20555;-51
2023/08/10 06:22:44;;;;;;;0.40;0.20;;;;;;;18.06;90.72;100746.00;5003946;28;20461;-51
2023/08/10 06:25:12;;;;;;;0.40;0.20;;;;;;;18.22;91.35;100758.66;5008644;28;20932;-51
2023/08/10 06:27:39;;;;;;;0.40;0.20;;;;;;;18.39;89.59;100755.97;5006947;28;20445;-51
2023/08/10 06:30:06;;;;;;;0.40;0.20;;;;;;;18.17;90.10;100752.66;5001602;28;20563;-51
2023/08/10 06:32:34;;;;;;;0.40;0.20;;;;;;;18.21;91.39;100762.28;5002947;28;20475;-50
2023/08/10 06:35:00;;;;;;;0.40;0.20;;;;;;;18.17;90.64;100758.03;5008233;28;20580;-51
2023/08/10 06:37:28;;;;;;;0.40;0.20;;;;;;;18.87;89.54;100755.13;5007544;28;20453;-51
2023/08/10 06:39:54;;;;;;;0.40;0.20;;;;;;;18.96;88.41;100760.97;5005088;28;20444;-51
2023/08/10 06:42:21;;;;;;;0.40;0.20;;;;;;;18.23;88.44;100766.66;5008150;28;20454;-51
2023/08/10 06:44:47;;;;;;;0.67;0.67;;;;;;;18.35;89.81;100766.00;5000639;28;20791;-51
2023/08/10 06:47:14;;;;;;;0.40;0.20;;;;;;;18.42;89.70;100768.38;5013432;28;20536;-51
2023/08/10 06:49:40;;;;;;;0.40;0.20;;;;;;;18.80;88.85;100767.22;5001294;28;20473;-51
2023/08/10 06:52:07;;;;;;;0.40;0.20;;;;;;;18.60;88.88;100765.56;5002051;28;20548;-51
2023/08/10 06:54:33;;;;;;;0.40;0.20;;;;;;;18.65;88.70;100759.97;5007848;28;20489;-51
2023/08/10 06:57:00;;;;;;;0.40;0.20;;;;;;;18.55;88.32;100759.56;5007450;28;20543;-51
2023/08/10 06:59:27;;;;;;;0.40;0.20;;;;;;;18.48;88.59;100770.72;5000669;28;20456;-51
2023/08/10 07:02:16;;;;;;;0.40;0.20;;;;;;;18.33;89.28;100761.66;5001188;28;20424;-51
2023/08/10 07:04:45;;;;;;;0.40;0.20;;;;;;;18.48;89.00;100770.72;5004993;28;20528;-51
2023/08/10 07:07:12;;;;;;;0.40;0.20;;;;;;;18.53;89.16;100769.53;4997702;28;20459;-51
2023/08/10 07:09:39;;;;;;;0.40;0.20;;;;;;;18.36;89.59;100777.63;5003958;28;20531;-51
2023/08/10 07:12:06;;;;;;;0.40;0.20;;;;;;;18.21;90.75;100767.69;5006342;28;20455;-51
2023/08/10 07:14:32;;;;;;;0.40;0.20;;;;;;;18.82;89.88;100765.31;5004609;28;20484;-51
2023/08/10 07:16:59;;;;;;;0.67;0.67;;;;;;;18.81;89.56;100777.03;5000963;28;20448;-51
2023/08/10 07:19:25;;;;;;;0.40;0.20;;;;;;;18.86;89.22;100764.16;5003403;28;20853;-51
2023/08/10 07:21:55;;;;;;;0.40;0.20;;;;;;;19.55;87.52;100770.22;5007452;28;20453;-51
2023/08/10 07:24:22;;;;;;;0.40;0.20;;;;;;;19.11;87.99;100770.88;5005070;28;20899;-51
2023/08/10 07:26:51;;;;;;;0.40;0.20;;;;;;;19.33;87.24;100763.34;5000584;28;20544;-50
2023/08/10 07:29:18;;;;;;;0.40;0.20;;;;;;;19.05;87.96;100771.22;5002112;28;20939;-51
2023/08/10 07:31:46;;;;;;;0.40;0.20;;;;;;;19.08;88.04;100765.69;5006788;28;20461;-49
2023/08/10 07:34:12;;;;;;;0.40;0.20;;;;;;;19.09;88.39;100767.41;5005850;28;20452;-49
2023/08/10 07:36:39;;;;;;;0.40;0.20;;;;;;;19.24;87.31;100774.63;5000140;28;20893;-49
2023/08/10 07:39:05;;;;;;;0.60;0.60;;;;;;;19.12;86.83;100770.81;5010718;28;20531;-49
2023/08/10 07:41:32;;;;;;;0.40;0.20;;;;;;;19.39;86.89;100772.88;5000525;28;20859;-49
2023/08/10 07:43:58;;;;;;;0.40;0.20;;;;;;;19.12;87.79;100775.31;5002004;28;20460;-49
2023/08/10 07:46:26;;;;;;;0.40;0.20;;;;;;;19.33;87.30;100776.81;5012956;28;20833;-49
2023/08/10 07:48:53;;;;;;;0.40;0.20;;;;;;;19.45;87.00;100772.53;5000749;28;20435;-49
2023/08/10 07:51:19;;;;;;;0.40;0.20;;;;;;;19.43;85.77;100775.31;5007072;28;20555;-49
2023/08/10 07:53:46;;;;;;;0.40;0.20;;;;;;;19.32;86.83;100769.66;5006411;28;20506;-49
2023/08/10 07:56:12;;;;;;;0.40;0.20;;;;;;;19.57;84.92;100763.75;5000085;28;20467;-49
2023/08/10 07:58:39;;;;;;;0.40;0.20;;;;;;;19.79;84.20;100771.47;5000550;28;20812;-49
2023/08/10 08:01:08;;;;;;;0.40;0.20;;;;;;;20.07;85.01;100763.47;5007126;28;20448;-49
2023/08/10 08:03:35;;;;;;;0.40;0.20;;;;;;;20.34;83.50;100766.31;5006830;28;20913;-49
2023/08/10 08:06:01;;;;;;;0.50;0.20;;;;;;;20.55;82.37;100761.44;5000472;28;20797;-49
2023/08/10 08:08:28;;;;;;;0.40;0.20;;;;;;;20.57;80.76;100764.94;5003136;28;20518;-49
2023/08/10 08:10:55;;;;;;;0.40;0.20;;;;;;;21.18;80.15;100766.41;5000632;28;20508;-50
2023/08/10 08:13:22;;;;;;;0.50;0.20;;;;;;;21.09;79.77;100766.13;4999894;28;20549;-49
2023/08/10 08:15:48;;;;;;;0.40;0.20;;;;;;;21.51;78.58;100767.91;5005949;28;20497;-49
2023/08/10 08:18:52;;;;;;;0.40;0.20;;;;;;;21.41;78.72;100770.38;5006496;28;20510;-49
2023/08/10 08:21:24;;;;;;;0.40;0.20;;;;;;;21.83;76.57;100765.75;5005733;28;20438;-49
2023/08/10 08:23:53;;;;;;;0.40;0.20;;;;;;;21.53;77.88;100768.69;4999731;28;20446;-49
2023/08/10 08:26:21;;;;;;;0.40;0.20;;;;;;;21.47;78.26;100767.25;4999622;28;20528;-49
2023/08/10 08:28:47;;;;;;;0.50;0.30;;;;;;;21.47;78.51;100772.66;5005769;28;20459;-50
2023/08/10 08:31:14;;;;;;;0.50;0.30;;;;;;;21.64;76.88;100767.94;5005986;28;20602;-48
2023/08/10 08:33:40;;;;;;;0.40;0.20;;;;;;;21.28;77.85;100766.72;5000555;28;20459;-49
2023/08/10 08:36:07;;;;;;;0.40;0.20;;;;;;;21.51;77.49;100767.91;4985924;28;20537;-49
2023/08/10 08:38:34;;;;;;;0.40;0.20;;;;;;;21.53;78.44;100764.16;5000087;28;20430;-49
2023/08/10 08:41:07;;;;;;;0.50;0.20;;;;;;;21.77;77.31;100755.31;4999149;28;20498;-49
2023/08/10 08:43:35;;;;;;;0.50;0.23;;;;;;;21.63;76.77;100752.69;5003871;28;20931;-48
2023/08/10 08:46:03;;;;;;;0.50;0.20;;;;;;;22.11;77.19;100751.22;5009354;28;20448;-49
2023/08/10 08:48:30;;;;;;;0.43;0.20;;;;;;;22.40;76.07;100746.47;5003161;28;20436;-49
2023/08/10 08:50:57;;;;;;;0.40;0.20;;;;;;;22.57;73.31;100745.28;5004751;28;20904;-49
2023/08/10 08:53:24;;;;;;;0.47;0.30;;;;;;;22.02;74.56;100744.56;5002490;28;20489;-49
2023/08/10 08:55:51;;;;;;;0.40;0.20;;;;;;;22.41;75.09;100723.84;4999161;28;20459;-49
2023/08/10 08:58:18;;;;;;;0.50;0.20;;;;;;;22.69;73.28;100729.00;5002600;28;20449;-49
2023/08/10 09:00:49;;;;;;;0.50;0.20;;;;;;;22.88;73.62;100733.13;5006111;28;20460;-48
2023/08/10 09:03:17;;;;;;;0.40;0.20;;;;;;;22.84;73.29;100735.19;5003718;28;20457;-49
2023/08/10 09:05:45;;;;;;;0.50;0.30;;;;;;;22.65;73.02;100732.94;4999304;28;20427;-49
2023/08/10 09:08:14;;;;;;;0.40;0.23;;;;;;;23.05;73.54;100741.78;5002897;28;20528;-48
2023/08/10 09:10:45;;;;;;;0.50;0.30;;;;;;;23.10;73.28;100737.84;4998757;28;20473;-49
2023/08/10 09:13:17;;;;;;;0.50;0.30;;;;;;;22.87;71.41;100732.25;5000407;28;20475;-48
2023/08/10 09:15:43;;;;;;;0.50;0.20;;;;;;;23.59;71.06;100737.81;5005980;28;20527;-49
2023/08/10 09:18:10;;;;;;;0.50;0.30;;;;;;;23.31;69.82;100731.72;5005412;28;20448;-49
2023/08/10 09:20:37;;;;;;;0.50;0.20;;;;;;;23.23;69.18;100727.84;4998877;28;20458;-49
2023/08/10 09:23:04;;;;;;;0.50;0.20;;;;;;;22.77;69.99;100728.47;4999099;28;20434;-49
2023/08/10 09:25:37;;;;;;;0.50;0.30;;;;;;;22.62;69.50;100727.72;4999093;28;20423;-49
2023/08/10 09:28:11;;;;;;;0.50;0.20;;;;;;;22.52;70.97;100725.78;4999102;28;20441;-49
2023/08/10 09:30:38;;;;;;;0.50;0.30;;;;;;;22.31;71.84;100714.59;5003332;28;20518;-48
2023/08/10 09:33:05;;;;;;;0.50;0.30;;;;;;;22.39;71.37;100707.69;5005680;28;20429;-48
2023/08/10 09:35:31;;;;;;;0.50;0.20;;;;;;;22.34;69.78;100703.56;5001107;28;20492;-50
2023/08/10 09:38:03;;;;;;;0.50;0.20;;;;;;;22.77;70.33;100698.66;4998802;28;20438;-48
2023/08/10 09:40:30;;;;;;;0.50;0.20;;;;;;;23.22;68.13;100702.56;5002336;28;20443;-49
2023/08/10 09:42:56;;;;;;;0.50;0.20;;;;;;;23.24;69.10;100699.72;5008994;28;20543;-49
2023/08/10 09:45:23;;;;;;;0.50;0.30;;;;;;;23.59;66.84;100691.69;5004640;28;20427;-49
2023/08/10 09:47:50;;;;;;;0.50;0.20;;;;;;;23.67;66.77;100691.06;4992966;28;20436;-49
2023/08/10 09:50:17;;;;;;;0.50;0.20;;;;;;;23.83;65.69;100691.63;4984389;28;20444;-49
2023/08/10 09:52:45;;;;;;;0.50;0.20;;;;;;;23.67;65.28;100699.22;5005496;28;20424;-49
2023/08/10 09:55:12;;;;;;;0.50;0.50;;;;;;;23.77;67.09;100701.13;5005890;28;20818;-49
2023/08/10 09:57:44;;;;;;;0.50;0.20;;;;;;;24.18;64.04;100703.31;5002678;28;20464;-49
2023/08/10 10:00:18;;;;;;;0.50;0.40;;;;;;;24.11;64.15;100702.06;5002802;28;20890;-49
2023/08/10 10:02:46;;;;;;;0.50;0.20;;;;;;;24.30;63.78;100698.81;4988967;28;20419;-50
2023/08/10 10:05:16;;;;;;;0.50;0.20;;;;;;;24.33;61.92;100698.56;5002412;28;20453;-49
2023/08/10 10:08:03;;;;;;;0.50;0.30;;;;;;;24.37;61.86;100691.00;5005238;28;20862;-49
2023/08/10 10:10:32;;;;;;;0.50;0.30;;;;;;;24.40;60.57;100697.09;5002037;28;20447;-49
2023/08/10 10:12:59;;;;;;;0.50;0.30;;;;;;;24.60;60.99;100694.63;5004367;28;20466;-48
2023/08/10 10:15:26;;;;;;;0.50;0.27;;;;;;;24.74;59.70;100692.50;5008486;28;20463;-49
2023/08/10 10:17:52;;;;;;;0.50;0.30;;;;;;;24.62;58.85;100698.94;5007005;28;20547;-48
2023/08/10 10:20:20;;;;;;;0.50;0.30;;;;;;;24.87;57.75;100689.66;5001894;28;20468;-49
2023/08/10 10:22:47;;;;;;;0.50;0.23;;;;;;;24.47;56.82;100694.72;5004368;28;20503;-49
2023/08/10 10:25:17;;;;;;;0.50;0.30;;;;;;;24.85;57.49;100691.63;5008368;28;20540;-49
2023/08/10 10:27:49;;;;;;;0.50;0.20;;;;;;;24.74;56.97;100691.66;5007365;28;20455;-49
2023/08/10 10:30:17;;;;;;;0.50;0.27;;;;;;;24.79;57.04;100695.69;5001662;28;20553;-49
2023/08/10 10:32:46;;;;;;;0.50;0.30;;;;;;;25.14;54.77;100694.72;5002254;28;20424;-49
2023/08/10 10:35:22;;;;;;;0.50;0.30;;;;;;;24.93;56.89;100680.97;4990134;28;20452;-49
2023/08/10 10:37:57;;;;;;;0.50;0.30;;;;;;;24.89;56.00;100687.66;5001930;28;20532;-48
2023/08/10 10:40:24;;;;;;;0.50;0.30;;;;;;;24.23;57.83;100678.50;5005086;28;20499;-49
2023/08/10 10:43:14;;;;;;;0.50;0.30;;;;;;;23.83;59.35;100667.19;5008709;28;20467;-49
2023/08/10 10:45:42;;;;;;;0.50;0.23;;;;;;;24.15;59.18;100672.81;5002145;28;20447;-49
2023/08/10 10:48:11;;;;;;;0.50;0.40;;;;;;;24.05;59.82;100664.53;5007555;28;20449;-49
2023/08/10 10:50:37;;;;;;;0.50;0.30;;;;;;;24.26;58.72;100667.41;5007801;28;20475;-49
2023/08/10 10:53:05;;;;;;;0.40;0.20;;;;;;;24.26;57.45;100670.13;5002480;28;21024;-49
2023/08/10 10:55:34;;;;;;;0.50;0.30;;;;;;;24.67;58.00;100657.75;5001065;28;20961;-48
2023/08/10 10:58:06;;;;;;;0.50;0.30;;;;;;;25.09;56.70;100656.16;5006487;28;20454;-48
2023/08/10 11:00:36;;;;;;;0.50;0.30;;;;;;;25.36;53.24;100652.97;5007839;28;20560;-49
2023/08/10 11:03:03;;;;;;;0.50;0.30;;;;;;;25.13;52.71;100654.03;5004165;28;20459;-50
2023/08/10 11:05:30;;;;;;;0.50;0.30;;;;;;;25.60;52.67;100652.72;5000814;28;20455;-50
2023/08/10 11:08:03;;;;;;;0.50;0.27;;;;;;;25.38;52.52;100650.97;5004600;28;20536;-49
2023/08/10 11:10:31;;;;;;;0.50;0.20;;;;;;;25.92;47.20;100650.84;5007568;28;20470;-49
2023/08/10 11:12:59;;;;;;;0.50;0.20;;;;;;;26.08;48.29;100653.09;5005188;28;20535;-49
2023/08/10 11:15:27;;;;;;;0.50;0.30;;;;;;;25.88;43.68;100656.66;5000929;28;20427;-49
2023/08/10 11:17:54;;;;;;;0.50;0.30;;;;;;;25.95;46.83;100653.31;5002690;28;20962;-49
2023/08/10 11:20:21;;;;;;;0.50;0.30;;;;;;;26.20;44.22;100651.16;5007459;28;20440;-49
2023/08/10 11:22:48;;;;;;;0.50;0.20;;;;;;;26.47;45.91;100643.28;5006427;28;20449;-48
2023/08/10 11:25:20;;;;;;;0.50;0.30;;;;;;;26.46;44.75;100647.00;5000552;28;20954;-49